FDC1601 KBOS-KPIT
Flight info
| Callsign | FDC1601 |
|---|---|
| Flight time | 1h 16m |
| Altitude | 32000 |
| Route | REVSS6 REVSS CTR HNK KONJE SLT HAYNZ7 |
| Aircraft | B763/H-SDE3FGHIM3RWXY/LB1 |
Departure
| Time | 2026-05-04 13:18 |
|---|---|
| Airport | Boston Logan International Airport (KBOS) |
Arrival
| Time | 2026-05-04 14:35 |
|---|---|
| Airport | Pittsburgh International Airport (KPIT) |
| Time | Latitude | Longitude | Altitude | Speed | Heading |
|---|---|---|---|---|---|
| 2026-05-04 12:59 | 42.35884 | -71.02152 | 33 ft | 0 kts | 216° |
| 2026-05-04 13:10 | 42.35897 | -71.02140 | 33 ft | 3 kts | 216° |
| 2026-05-04 13:10 | 42.35914 | -71.02128 | 33 ft | 3 kts | 191° |
| 2026-05-04 13:10 | 42.35935 | -71.02129 | 33 ft | 3 kts | 160° |
| 2026-05-04 13:11 | 42.35952 | -71.02144 | 33 ft | 3 kts | 129° |
| 2026-05-04 13:11 | 42.35953 | -71.02147 | 33 ft | 0 kts | 125° |
| 2026-05-04 13:11 | 42.35953 | -71.02146 | 33 ft | 0 kts | 125° |
| 2026-05-04 13:12 | 42.35933 | -71.02087 | 33 ft | 15 kts | 109° |
| 2026-05-04 13:12 | 42.35878 | -71.01927 | 33 ft | 19 kts | 118° |
| 2026-05-04 13:12 | 42.35835 | -71.01757 | 33 ft | 19 kts | 102° |
| 2026-05-04 13:13 | 42.35839 | -71.01579 | 33 ft | 19 kts | 38° |
| 2026-05-04 13:13 | 42.35962 | -71.01515 | 33 ft | 20 kts | 20° |
| 2026-05-04 13:13 | 42.36094 | -71.01452 | 33 ft | 21 kts | 20° |
| 2026-05-04 13:13 | 42.36236 | -71.01382 | 33 ft | 22 kts | 18° |
| 2026-05-04 13:14 | 42.36388 | -71.01310 | 33 ft | 24 kts | 21° |
| 2026-05-04 13:14 | 42.36543 | -71.01230 | 33 ft | 20 kts | 22° |
| 2026-05-04 13:14 | 42.36659 | -71.01167 | 33 ft | 17 kts | 22° |
| 2026-05-04 13:14 | 42.36781 | -71.01150 | 33 ft | 19 kts | 339° |
| 2026-05-04 13:15 | 42.36883 | -71.01198 | 33 ft | 14 kts | 22° |
| 2026-05-04 13:15 | 42.36980 | -71.01119 | 33 ft | 20 kts | 29° |
| 2026-05-04 13:15 | 42.37128 | -71.01021 | 33 ft | 27 kts | 25° |
| 2026-05-04 13:15 | 42.37301 | -71.00914 | 33 ft | 27 kts | 24° |
| 2026-05-04 13:16 | 42.37447 | -71.00838 | 33 ft | 19 kts | 19° |
| 2026-05-04 13:16 | 42.37594 | -71.00764 | 33 ft | 25 kts | 20° |
| 2026-05-04 13:16 | 42.37744 | -71.00680 | 33 ft | 21 kts | 41° |
| 2026-05-04 13:16 | 42.37753 | -71.00520 | 33 ft | 19 kts | 129° |
| 2026-05-04 13:17 | 42.37650 | -71.00529 | 33 ft | 11 kts | 206° |
| 2026-05-04 13:17 | 42.37642 | -71.00533 | 33 ft | 0 kts | 200° |
| 2026-05-04 13:17 | 42.37538 | -71.00585 | 33 ft | 51 kts | 199° |
| 2026-05-04 13:18 | 42.36954 | -71.00873 | 33 ft | 127 kts | 199° |
| 2026-05-04 13:18 | 42.35917 | -71.01358 | 279 ft | 181 kts | 201° |
| 2026-05-04 13:18 | 42.34622 | -71.01908 | 1018 ft | 205 kts | 200° |
| 2026-05-04 13:18 | 42.33158 | -71.02065 | 1753 ft | 224 kts | 178° |
| 2026-05-04 13:19 | 42.31652 | -71.01258 | 2436 ft | 245 kts | 154° |
| 2026-05-04 13:19 | 42.30770 | -71.00182 | 2892 ft | 260 kts | 135° |
| 2026-05-04 13:19 | 42.29977 | -70.97911 | 3568 ft | 278 kts | 106° |
| 2026-05-04 13:19 | 42.30136 | -70.94402 | 4464 ft | 291 kts | 73° |
| 2026-05-04 13:20 | 42.30836 | -70.91805 | 5144 ft | 297 kts | 65° |
| 2026-05-04 13:20 | 42.31349 | -70.90064 | 5591 ft | 301 kts | 65° |
| 2026-05-04 13:20 | 42.32107 | -70.87388 | 6282 ft | 306 kts | 67° |
| 2026-05-04 13:20 | 42.32754 | -70.84609 | 6967 ft | 310 kts | 72° |
| 2026-05-04 13:21 | 42.33231 | -70.81753 | 7648 ft | 315 kts | 79° |
| 2026-05-04 13:21 | 42.33159 | -70.78794 | 8308 ft | 318 kts | 103° |
| 2026-05-04 13:21 | 42.32332 | -70.76044 | 9002 ft | 317 kts | 123° |
| 2026-05-04 13:21 | 42.31059 | -70.73644 | 9679 ft | 314 kts | 137° |
| 2026-05-04 13:22 | 42.29337 | -70.71915 | 10358 ft | 304 kts | 161° |
| 2026-05-04 13:22 | 42.27322 | -70.71247 | 11015 ft | 298 kts | 183° |
| 2026-05-04 13:22 | 42.25217 | -70.71414 | 11379 ft | 315 kts | 195° |
| 2026-05-04 13:22 | 42.23008 | -70.72101 | 11637 ft | 338 kts | 201° |
| 2026-05-04 13:23 | 42.20772 | -70.73316 | 12021 ft | 351 kts | 214° |
| 2026-05-04 13:23 | 42.18876 | -70.75359 | 12726 ft | 352 kts | 232° |
| 2026-05-04 13:23 | 42.17613 | -70.78213 | 13473 ft | 354 kts | 251° |
| 2026-05-04 13:23 | 42.17102 | -70.81471 | 14309 ft | 357 kts | 264° |
| 2026-05-04 13:24 | 42.16940 | -70.84835 | 15169 ft | 361 kts | 268° |
| 2026-05-04 13:24 | 42.16750 | -70.88208 | 16025 ft | 365 kts | 265° |
| 2026-05-04 13:24 | 42.16403 | -70.91614 | 16816 ft | 371 kts | 263° |
| 2026-05-04 13:25 | 42.16778 | -70.98590 | 18380 ft | 379 kts | 283° |
| 2026-05-04 13:25 | 42.17502 | -71.02005 | 19116 ft | 383 kts | 286° |
| 2026-05-04 13:25 | 42.18303 | -71.05415 | 19893 ft | 386 kts | 287° |
| 2026-05-04 13:25 | 42.19120 | -71.08890 | 20632 ft | 389 kts | 286° |
| 2026-05-04 13:26 | 42.19924 | -71.12419 | 21338 ft | 393 kts | 285° |
| 2026-05-04 13:26 | 42.20720 | -71.15971 | 22020 ft | 397 kts | 285° |
| 2026-05-04 13:26 | 42.21522 | -71.19520 | 22679 ft | 400 kts | 285° |
| 2026-05-04 13:26 | 42.22333 | -71.23157 | 23330 ft | 404 kts | 285° |
| 2026-05-04 13:27 | 42.23138 | -71.26773 | 23963 ft | 407 kts | 285° |
| 2026-05-04 13:27 | 42.23916 | -71.30465 | 24575 ft | 410 kts | 284° |
| 2026-05-04 13:27 | 42.24671 | -71.34172 | 25127 ft | 414 kts | 284° |
| 2026-05-04 13:27 | 42.25449 | -71.37935 | 25664 ft | 418 kts | 284° |
| 2026-05-04 13:28 | 42.26251 | -71.41752 | 26187 ft | 422 kts | 285° |
| 2026-05-04 13:28 | 42.27072 | -71.45611 | 26657 ft | 427 kts | 285° |
| 2026-05-04 13:28 | 42.27898 | -71.49436 | 27163 ft | 429 kts | 285° |
| 2026-05-04 13:28 | 42.28750 | -71.53338 | 27836 ft | 427 kts | 285° |
| 2026-05-04 13:29 | 42.29586 | -71.57168 | 28540 ft | 424 kts | 285° |
| 2026-05-04 13:29 | 42.30409 | -71.60950 | 29218 ft | 421 kts | 285° |
| 2026-05-04 13:29 | 42.31211 | -71.64776 | 29865 ft | 418 kts | 285° |
| 2026-05-04 13:29 | 42.31970 | -71.68539 | 30386 ft | 418 kts | 284° |
| 2026-05-04 13:30 | 42.32743 | -71.72379 | 30863 ft | 419 kts | 284° |
| 2026-05-04 13:30 | 42.33510 | -71.76126 | 31307 ft | 419 kts | 284° |
| 2026-05-04 13:30 | 42.34236 | -71.79953 | 31672 ft | 422 kts | 281° |
| 2026-05-04 13:30 | 42.34577 | -71.83919 | 31842 ft | 429 kts | 273° |
| 2026-05-04 13:31 | 42.34360 | -71.91968 | 31931 ft | 427 kts | 267° |
| 2026-05-04 13:31 | 42.33881 | -71.99918 | 31936 ft | 424 kts | 267° |
| 2026-05-04 13:32 | 42.33425 | -72.07871 | 31936 ft | 423 kts | 267° |
| 2026-05-04 13:32 | 42.33006 | -72.15780 | 31935 ft | 423 kts | 268° |
| 2026-05-04 13:33 | 42.32634 | -72.23729 | 31934 ft | 423 kts | 268° |
| 2026-05-04 13:33 | 42.32282 | -72.31643 | 31934 ft | 423 kts | 268° |
| 2026-05-04 13:34 | 42.31966 | -72.39568 | 31925 ft | 420 kts | 268° |
| 2026-05-04 13:34 | 42.31598 | -72.47418 | 31921 ft | 421 kts | 267° |
| 2026-05-04 13:35 | 42.30953 | -72.59219 | 31919 ft | 422 kts | 267° |
| 2026-05-04 13:36 | 42.30529 | -72.67091 | 31919 ft | 421 kts | 267° |
| 2026-05-04 13:36 | 42.30146 | -72.74991 | 31922 ft | 421 kts | 267° |
| 2026-05-04 13:37 | 42.29781 | -72.82889 | 31926 ft | 421 kts | 268° |
| 2026-05-04 13:37 | 42.29399 | -72.90770 | 31925 ft | 421 kts | 267° |
| 2026-05-04 13:38 | 42.28903 | -72.98649 | 31924 ft | 420 kts | 265° |
| 2026-05-04 13:38 | 42.28202 | -73.06523 | 31923 ft | 421 kts | 264° |
| 2026-05-04 13:39 | 42.27458 | -73.14344 | 31921 ft | 421 kts | 264° |
| 2026-05-04 13:39 | 42.26712 | -73.22186 | 31912 ft | 420 kts | 264° |
| 2026-05-04 13:40 | 42.25966 | -73.30019 | 31911 ft | 420 kts | 264° |
| 2026-05-04 13:40 | 42.25324 | -73.37853 | 31909 ft | 420 kts | 265° |
| 2026-05-04 13:41 | 42.24676 | -73.45665 | 31908 ft | 420 kts | 265° |
| 2026-05-04 13:41 | 42.24002 | -73.53505 | 31909 ft | 421 kts | 265° |
| 2026-05-04 13:42 | 42.22935 | -73.65355 | 31908 ft | 424 kts | 265° |
| 2026-05-04 13:42 | 42.22214 | -73.73218 | 31908 ft | 424 kts | 264° |
| 2026-05-04 13:43 | 42.21410 | -73.81108 | 31916 ft | 424 kts | 264° |
| 2026-05-04 13:43 | 42.20609 | -73.88964 | 31909 ft | 421 kts | 264° |
| 2026-05-04 13:44 | 42.19820 | -73.96791 | 31909 ft | 421 kts | 264° |
| 2026-05-04 13:44 | 42.19136 | -74.04627 | 31919 ft | 421 kts | 265° |
| 2026-05-04 13:45 | 42.18425 | -74.12498 | 31919 ft | 422 kts | 264° |
| 2026-05-04 13:45 | 42.17717 | -74.20330 | 31929 ft | 421 kts | 264° |
| 2026-05-04 13:46 | 42.16978 | -74.28162 | 31947 ft | 422 kts | 264° |
| 2026-05-04 13:46 | 42.16189 | -74.36088 | 31942 ft | 427 kts | 264° |
| 2026-05-04 13:47 | 42.15383 | -74.43999 | 31943 ft | 427 kts | 264° |
| 2026-05-04 13:47 | 42.14557 | -74.51935 | 31947 ft | 426 kts | 264° |
| 2026-05-04 13:48 | 42.13718 | -74.59843 | 31946 ft | 426 kts | 264° |
| 2026-05-04 13:48 | 42.12865 | -74.67744 | 31948 ft | 426 kts | 264° |
| 2026-05-04 13:49 | 42.12099 | -74.75648 | 31952 ft | 426 kts | 265° |
| 2026-05-04 13:49 | 42.11350 | -74.83583 | 31951 ft | 428 kts | 264° |
| 2026-05-04 13:50 | 42.10572 | -74.91537 | 31953 ft | 428 kts | 264° |
| 2026-05-04 13:50 | 42.09777 | -74.99481 | 31954 ft | 428 kts | 264° |
| 2026-05-04 13:51 | 42.08921 | -75.07400 | 31946 ft | 429 kts | 263° |
| 2026-05-04 13:51 | 42.08012 | -75.15311 | 31944 ft | 428 kts | 263° |
| 2026-05-04 13:52 | 42.06710 | -75.27193 | 31939 ft | 428 kts | 264° |
| 2026-05-04 13:53 | 42.05884 | -75.35142 | 31922 ft | 429 kts | 264° |
| 2026-05-04 13:53 | 42.04932 | -75.43074 | 31925 ft | 429 kts | 263° |
| 2026-05-04 13:54 | 42.03316 | -75.54936 | 31915 ft | 429 kts | 262° |
| 2026-05-04 13:55 | 42.01722 | -75.66806 | 31921 ft | 429 kts | 262° |
| 2026-05-04 13:55 | 42.00349 | -75.77307 | 31921 ft | 429 kts | 262° |
| 2026-05-04 13:56 | 41.99149 | -75.86520 | 31925 ft | 430 kts | 263° |
| 2026-05-04 13:57 | 41.97784 | -75.97093 | 31926 ft | 430 kts | 263° |
| 2026-05-04 13:58 | 41.95766 | -76.12941 | 31916 ft | 429 kts | 263° |
| 2026-05-04 13:58 | 41.94116 | -76.24746 | 31908 ft | 430 kts | 262° |
| 2026-05-04 13:59 | 41.92992 | -76.32624 | 31905 ft | 430 kts | 263° |
| 2026-05-04 14:00 | 41.91382 | -76.44482 | 31904 ft | 429 kts | 263° |
| 2026-05-04 14:00 | 41.89814 | -76.56297 | 31902 ft | 429 kts | 263° |
| 2026-05-04 14:01 | 41.88765 | -76.64184 | 31902 ft | 429 kts | 263° |
| 2026-05-04 14:02 | 41.87066 | -76.75718 | 31900 ft | 430 kts | 262° |
| 2026-05-04 14:02 | 41.85891 | -76.83611 | 31898 ft | 428 kts | 262° |
| 2026-05-04 14:03 | 41.84751 | -76.91449 | 31889 ft | 427 kts | 263° |
| 2026-05-04 14:03 | 41.83699 | -76.99311 | 31887 ft | 427 kts | 263° |
| 2026-05-04 14:04 | 41.81992 | -77.11033 | 31912 ft | 430 kts | 258° |
| 2026-05-04 14:04 | 41.79721 | -77.18449 | 31906 ft | 436 kts | 248° |
| 2026-05-04 14:05 | 41.75633 | -77.29362 | 31909 ft | 436 kts | 248° |
| 2026-05-04 14:06 | 41.72969 | -77.36632 | 31906 ft | 436 kts | 249° |
| 2026-05-04 14:06 | 41.70342 | -77.43964 | 31895 ft | 435 kts | 249° |
| 2026-05-04 14:07 | 41.67742 | -77.51268 | 31899 ft | 435 kts | 249° |
| 2026-05-04 14:07 | 41.65178 | -77.58597 | 31903 ft | 435 kts | 249° |
| 2026-05-04 14:08 | 41.62600 | -77.65902 | 31909 ft | 435 kts | 249° |
| 2026-05-04 14:08 | 41.59951 | -77.73164 | 31921 ft | 436 kts | 248° |
| 2026-05-04 14:09 | 41.55910 | -77.84047 | 31927 ft | 436 kts | 248° |
| 2026-05-04 14:10 | 41.51926 | -77.95053 | 31895 ft | 443 kts | 250° |
| 2026-05-04 14:10 | 41.49412 | -78.02588 | 31429 ft | 448 kts | 252° |
| 2026-05-04 14:10 | 41.48204 | -78.06435 | 30962 ft | 444 kts | 253° |
| 2026-05-04 14:11 | 41.47040 | -78.10224 | 30510 ft | 445 kts | 253° |
| 2026-05-04 14:11 | 41.44655 | -78.17943 | 29608 ft | 453 kts | 252° |
| 2026-05-04 14:11 | 41.43440 | -78.21819 | 29156 ft | 452 kts | 252° |
| 2026-05-04 14:12 | 41.42234 | -78.25655 | 28707 ft | 449 kts | 252° |
| 2026-05-04 14:12 | 41.41020 | -78.29521 | 28251 ft | 447 kts | 252° |
| 2026-05-04 14:12 | 41.38614 | -78.37104 | 27352 ft | 444 kts | 251° |
| 2026-05-04 14:13 | 41.37410 | -78.40866 | 26901 ft | 440 kts | 251° |
| 2026-05-04 14:13 | 41.36210 | -78.44646 | 26444 ft | 437 kts | 251° |
| 2026-05-04 14:13 | 41.35029 | -78.48326 | 25995 ft | 433 kts | 251° |
| 2026-05-04 14:13 | 41.33838 | -78.52001 | 25544 ft | 430 kts | 251° |
| 2026-05-04 14:14 | 41.32648 | -78.55626 | 25144 ft | 426 kts | 250° |
| 2026-05-04 14:14 | 41.30298 | -78.62848 | 24384 ft | 421 kts | 251° |
| 2026-05-04 14:14 | 41.29132 | -78.66391 | 24009 ft | 419 kts | 250° |
| 2026-05-04 14:15 | 41.26868 | -78.73464 | 23256 ft | 413 kts | 251° |
| 2026-05-04 14:15 | 41.24673 | -78.80456 | 22504 ft | 410 kts | 251° |
| 2026-05-04 14:16 | 41.22442 | -78.87474 | 21747 ft | 407 kts | 251° |
| 2026-05-04 14:16 | 41.21332 | -78.90905 | 21371 ft | 404 kts | 251° |
| 2026-05-04 14:17 | 41.19092 | -78.97709 | 20616 ft | 399 kts | 250° |
| 2026-05-04 14:17 | 41.17993 | -79.01033 | 20244 ft | 396 kts | 250° |
| 2026-05-04 14:17 | 41.15782 | -79.07712 | 19488 ft | 391 kts | 250° |
| 2026-05-04 14:18 | 41.14693 | -79.11009 | 19111 ft | 389 kts | 250° |
| 2026-05-04 14:18 | 41.12540 | -79.17530 | 18358 ft | 383 kts | 250° |
| 2026-05-04 14:19 | 41.10413 | -79.23969 | 17610 ft | 378 kts | 250° |
| 2026-05-04 14:19 | 41.09378 | -79.27120 | 17247 ft | 375 kts | 250° |
| 2026-05-04 14:19 | 41.08330 | -79.30283 | 16869 ft | 374 kts | 250° |
| 2026-05-04 14:19 | 41.07289 | -79.33433 | 16489 ft | 371 kts | 250° |
| 2026-05-04 14:20 | 41.06254 | -79.36574 | 16135 ft | 368 kts | 250° |
| 2026-05-04 14:20 | 41.05236 | -79.39682 | 15750 ft | 367 kts | 250° |
| 2026-05-04 14:20 | 41.04219 | -79.42764 | 15385 ft | 363 kts | 250° |
| 2026-05-04 14:21 | 41.02220 | -79.48826 | 14632 ft | 357 kts | 250° |
| 2026-05-04 14:21 | 41.01222 | -79.51860 | 14252 ft | 355 kts | 249° |
| 2026-05-04 14:21 | 41.00239 | -79.54820 | 13888 ft | 353 kts | 249° |
| 2026-05-04 14:21 | 40.99244 | -79.57814 | 13613 ft | 363 kts | 249° |
| 2026-05-04 14:22 | 40.98224 | -79.60924 | 13359 ft | 374 kts | 249° |
| 2026-05-04 14:22 | 40.97181 | -79.64147 | 13112 ft | 387 kts | 249° |
| 2026-05-04 14:22 | 40.95991 | -79.67401 | 12852 ft | 399 kts | 242° |
| 2026-05-04 14:22 | 40.94307 | -79.70228 | 12600 ft | 385 kts | 230° |
| 2026-05-04 14:23 | 40.90422 | -79.74703 | 12119 ft | 357 kts | 223° |
| 2026-05-04 14:23 | 40.88516 | -79.76747 | 11862 ft | 344 kts | 223° |
| 2026-05-04 14:23 | 40.86711 | -79.78703 | 11605 ft | 334 kts | 221° |
| 2026-05-04 14:24 | 40.84712 | -79.80252 | 11345 ft | 329 kts | 209° |
| 2026-05-04 14:24 | 40.82558 | -79.81207 | 11093 ft | 324 kts | 199° |
| 2026-05-04 14:24 | 40.80354 | -79.81773 | 10836 ft | 318 kts | 194° |
| 2026-05-04 14:24 | 40.78189 | -79.82154 | 10574 ft | 311 kts | 192° |
| 2026-05-04 14:25 | 40.76101 | -79.82532 | 10330 ft | 301 kts | 194° |
| 2026-05-04 14:25 | 40.72083 | -79.83572 | 9824 ft | 286 kts | 197° |
| 2026-05-04 14:25 | 40.70170 | -79.84122 | 9592 ft | 278 kts | 198° |
| 2026-05-04 14:26 | 40.68310 | -79.84651 | 9342 ft | 269 kts | 198° |
| 2026-05-04 14:26 | 40.66511 | -79.85154 | 9086 ft | 260 kts | 198° |
| 2026-05-04 14:26 | 40.64767 | -79.85637 | 8844 ft | 251 kts | 198° |
| 2026-05-04 14:26 | 40.63078 | -79.86096 | 8576 ft | 241 kts | 198° |
| 2026-05-04 14:27 | 40.61435 | -79.86561 | 8316 ft | 240 kts | 199° |
| 2026-05-04 14:27 | 40.59847 | -79.87059 | 8064 ft | 229 kts | 200° |
| 2026-05-04 14:27 | 40.58329 | -79.87557 | 7732 ft | 221 kts | 200° |
| 2026-05-04 14:27 | 40.56877 | -79.88055 | 7416 ft | 210 kts | 201° |
| 2026-05-04 14:28 | 40.55527 | -79.88538 | 7159 ft | 197 kts | 202° |
| 2026-05-04 14:28 | 40.54229 | -79.88994 | 6905 ft | 186 kts | 202° |
| 2026-05-04 14:28 | 40.53004 | -79.89414 | 6640 ft | 177 kts | 202° |
| 2026-05-04 14:28 | 40.51819 | -79.89818 | 6349 ft | 180 kts | 202° |
| 2026-05-04 14:29 | 40.49890 | -79.91556 | 5752 ft | 168 kts | 242° |
| 2026-05-04 14:29 | 40.49409 | -79.94509 | 5163 ft | 163 kts | 262° |
| 2026-05-04 14:30 | 40.49375 | -79.95938 | 4909 ft | 152 kts | 265° |
| 2026-05-04 14:30 | 40.49393 | -79.97361 | 4653 ft | 159 kts | 267° |
| 2026-05-04 14:30 | 40.49447 | -80.00300 | 4151 ft | 162 kts | 267° |
| 2026-05-04 14:31 | 40.49488 | -80.01793 | 3898 ft | 163 kts | 268° |
| 2026-05-04 14:31 | 40.49617 | -80.04757 | 3397 ft | 164 kts | 269° |
| 2026-05-04 14:32 | 40.49747 | -80.07709 | 3046 ft | 156 kts | 268° |
| 2026-05-04 14:32 | 40.49791 | -80.09085 | 3023 ft | 146 kts | 267° |
| 2026-05-04 14:32 | 40.49813 | -80.09978 | 3019 ft | 147 kts | 267° |
| 2026-05-04 14:32 | 40.49847 | -80.11773 | 2980 ft | 150 kts | 267° |
| 2026-05-04 14:33 | 40.49893 | -80.13148 | 2888 ft | 151 kts | 268° |
| 2026-05-04 14:33 | 40.49921 | -80.14087 | 2716 ft | 156 kts | 268° |
| 2026-05-04 14:33 | 40.49963 | -80.15563 | 2335 ft | 164 kts | 267° |
| 2026-05-04 14:33 | 40.49988 | -80.17045 | 2064 ft | 161 kts | 267° |
| 2026-05-04 14:34 | 40.50020 | -80.18494 | 1905 ft | 156 kts | 267° |
| 2026-05-04 14:34 | 40.50043 | -80.19901 | 1718 ft | 153 kts | 268° |
| 2026-05-04 14:34 | 40.50077 | -80.21255 | 1548 ft | 144 kts | 267° |
| 2026-05-04 14:34 | 40.50114 | -80.22517 | 1396 ft | 132 kts | 266° |
| 2026-05-04 14:35 | 40.50146 | -80.23659 | 1221 ft | 113 kts | 265° |
| 2026-05-04 14:35 | 40.50162 | -80.24421 | 1218 ft | 49 kts | 272° |
| 2026-05-04 14:35 | 40.50158 | -80.24673 | 1218 ft | 11 kts | 240° |
| 2026-05-04 14:35 | 40.50126 | -80.24677 | 1218 ft | 8 kts | 158° |
| 2026-05-04 14:36 | 40.50080 | -80.24618 | 1218 ft | 10 kts | 121° |
| 2026-05-04 14:36 | 40.50062 | -80.24538 | 1218 ft | 10 kts | 95° |
| 2026-05-04 14:36 | 40.50057 | -80.24424 | 1218 ft | 15 kts | 92° |
| 2026-05-04 14:36 | 40.50053 | -80.24263 | 1218 ft | 19 kts | 91° |
| 2026-05-04 14:37 | 40.50050 | -80.24086 | 1218 ft | 20 kts | 91° |
| 2026-05-04 14:37 | 40.50046 | -80.23924 | 1218 ft | 15 kts | 92° |
| 2026-05-04 14:37 | 40.50042 | -80.23795 | 1218 ft | 13 kts | 92° |
| 2026-05-04 14:37 | 40.50041 | -80.23694 | 1218 ft | 11 kts | 90° |
| 2026-05-04 14:38 | 40.50062 | -80.23607 | 1218 ft | 11 kts | 35° |
| 2026-05-04 14:38 | 40.50136 | -80.23594 | 1218 ft | 11 kts | 1° |
| 2026-05-04 14:38 | 40.50216 | -80.23591 | 1218 ft | 12 kts | 1° |
| 2026-05-04 14:38 | 40.50306 | -80.23588 | 1218 ft | 13 kts | 1° |
| 2026-05-04 14:39 | 40.50384 | -80.23607 | 1218 ft | 9 kts | 310° |
| 2026-05-04 14:39 | 40.50389 | -80.23640 | 1218 ft | 3 kts | 271° |
| 2026-05-04 14:39 | 40.50389 | -80.23662 | 1218 ft | 0 kts | 271° |